sensor_id;sensor_type;location;lat;lon;timestamp;P1;durP1;ratioP1;P2;durP2;ratioP2
10651;SDS011;5374;42.742;23.266;2022-12-11T00:02:38;25.53;;;19.57;;
10651;SDS011;5374;42.742;23.266;2022-12-11T00:05:25;29.60;;;19.93;;
10651;SDS011;5374;42.742;23.266;2022-12-11T00:08:12;27.43;;;19.83;;
10651;SDS011;5374;42.742;23.266;2022-12-11T00:11:00;50.23;;;27.23;;
10651;SDS011;5374;42.742;23.266;2022-12-11T00:13:49;35.23;;;22.50;;
10651;SDS011;5374;42.742;23.266;2022-12-11T00:16:36;31.77;;;20.73;;
10651;SDS011;5374;42.742;23.266;2022-12-11T00:19:23;31.07;;;20.33;;
10651;SDS011;5374;42.742;23.266;2022-12-11T00:22:10;31.57;;;21.10;;
10651;SDS011;5374;42.742;23.266;2022-12-11T00:24:58;29.03;;;19.80;;
10651;SDS011;5374;42.742;23.266;2022-12-11T00:27:45;28.47;;;19.30;;
10651;SDS011;5374;42.742;23.266;2022-12-11T00:30:34;27.43;;;18.70;;
10651;SDS011;5374;42.742;23.266;2022-12-11T00:33:25;28.90;;;20.23;;
10651;SDS011;5374;42.742;23.266;2022-12-11T00:36:13;33.10;;;25.00;;
10651;SDS011;5374;42.742;23.266;2022-12-11T00:39:02;28.60;;;19.50;;
10651;SDS011;5374;42.742;23.266;2022-12-11T00:41:50;29.63;;;22.70;;
10651;SDS011;5374;42.742;23.266;2022-12-11T00:44:38;34.50;;;23.67;;
10651;SDS011;5374;42.742;23.266;2022-12-11T00:47:26;28.47;;;20.53;;
10651;SDS011;5374;42.742;23.266;2022-12-11T00:50:13;38.97;;;22.27;;
10651;SDS011;5374;42.742;23.266;2022-12-11T00:53:00;41.90;;;24.43;;
10651;SDS011;5374;42.742;23.266;2022-12-11T00:55:48;48.83;;;25.37;;
10651;SDS011;5374;42.742;23.266;2022-12-11T00:58:35;30.90;;;19.60;;
10651;SDS011;5374;42.742;23.266;2022-12-11T01:01:23;28.30;;;20.13;;
10651;SDS011;5374;42.742;23.266;2022-12-11T01:04:12;36.97;;;20.87;;
10651;SDS011;5374;42.742;23.266;2022-12-11T01:06:59;32.10;;;19.80;;
10651;SDS011;5374;42.742;23.266;2022-12-11T01:09:46;26.83;;;16.80;;
10651;SDS011;5374;42.742;23.266;2022-12-11T01:12:51;21.43;;;15.33;;
10651;SDS011;5374;42.742;23.266;2022-12-11T01:15:40;23.07;;;13.03;;
10651;SDS011;5374;42.742;23.266;2022-12-11T01:18:29;19.40;;;13.70;;
10651;SDS011;5374;42.742;23.266;2022-12-11T01:21:17;13.93;;;9.07;;
10651;SDS011;5374;42.742;23.266;2022-12-11T01:24:05;15.20;;;9.90;;
10651;SDS011;5374;42.742;23.266;2022-12-11T01:26:52;19.33;;;13.37;;
10651;SDS011;5374;42.742;23.266;2022-12-11T01:29:39;15.23;;;11.57;;
10651;SDS011;5374;42.742;23.266;2022-12-11T01:32:26;7.07;;;5.27;;
10651;SDS011;5374;42.742;23.266;2022-12-11T01:35:14;11.23;;;5.73;;
10651;SDS011;5374;42.742;23.266;2022-12-11T01:38:03;12.33;;;7.60;;
10651;SDS011;5374;42.742;23.266;2022-12-11T01:40:50;14.33;;;9.17;;
10651;SDS011;5374;42.742;23.266;2022-12-11T01:46:46;14.43;;;8.27;;
10651;SDS011;5374;42.742;23.266;2022-12-11T01:49:33;11.70;;;6.80;;
10651;SDS011;5374;42.742;23.266;2022-12-11T01:52:22;11.17;;;7.30;;
10651;SDS011;5374;42.742;23.266;2022-12-11T01:55:10;5.23;;;4.43;;
10651;SDS011;5374;42.742;23.266;2022-12-11T01:57:58;3.93;;;2.00;;
10651;SDS011;5374;42.742;23.266;2022-12-11T02:00:47;1.07;;;0.57;;
10651;SDS011;5374;42.742;23.266;2022-12-11T02:03:35;1.27;;;0.37;;
10651;SDS011;5374;42.742;23.266;2022-12-11T02:06:29;0.30;;;0.30;;
10651;SDS011;5374;42.742;23.266;2022-12-11T02:09:19;1.07;;;0.60;;
10651;SDS011;5374;42.742;23.266;2022-12-11T02:12:13;0.70;;;0.57;;
10651;SDS011;5374;42.742;23.266;2022-12-11T02:15:07;0.60;;;0.43;;
10651;SDS011;5374;42.742;23.266;2022-12-11T02:18:12;2.40;;;0.50;;
10651;SDS011;5374;42.742;23.266;2022-12-11T02:21:07;2.10;;;0.73;;
10651;SDS011;5374;42.742;23.266;2022-12-11T02:24:06;1.53;;;0.50;;
10651;SDS011;5374;42.742;23.266;2022-12-11T02:27:15;2.10;;;0.73;;
10651;SDS011;5374;42.742;23.266;2022-12-11T02:30:19;0.80;;;0.30;;
10651;SDS011;5374;42.742;23.266;2022-12-11T02:33:06;0.80;;;0.60;;
10651;SDS011;5374;42.742;23.266;2022-12-11T02:35:57;3.00;;;0.67;;
10651;SDS011;5374;42.742;23.266;2022-12-11T02:38:46;1.63;;;0.60;;
10651;SDS011;5374;42.742;23.266;2022-12-11T02:41:37;3.43;;;1.80;;
10651;SDS011;5374;42.742;23.266;2022-12-11T02:44:27;2.23;;;0.70;;
10651;SDS011;5374;42.742;23.266;2022-12-11T02:47:19;2.67;;;0.87;;
10651;SDS011;5374;42.742;23.266;2022-12-11T02:50:08;3.13;;;1.10;;
10651;SDS011;5374;42.742;23.266;2022-12-11T02:52:59;3.17;;;1.13;;
10651;SDS011;5374;42.742;23.266;2022-12-11T02:55:49;3.00;;;1.60;;
10651;SDS011;5374;42.742;23.266;2022-12-11T02:58:44;3.60;;;2.07;;
10651;SDS011;5374;42.742;23.266;2022-12-11T03:01:34;2.57;;;1.60;;
10651;SDS011;5374;42.742;23.266;2022-12-11T03:04:23;2.47;;;1.30;;
10651;SDS011;5374;42.742;23.266;2022-12-11T03:07:12;4.93;;;1.37;;
10651;SDS011;5374;42.742;23.266;2022-12-11T03:10:02;3.93;;;1.30;;
10651;SDS011;5374;42.742;23.266;2022-12-11T03:12:51;3.20;;;1.20;;
10651;SDS011;5374;42.742;23.266;2022-12-11T03:15:47;5.53;;;4.90;;
10651;SDS011;5374;42.742;23.266;2022-12-11T03:18:51;3.40;;;1.80;;
10651;SDS011;5374;42.742;23.266;2022-12-11T03:21:51;1.93;;;0.90;;
10651;SDS011;5374;42.742;23.266;2022-12-11T03:24:42;9.67;;;5.77;;
10651;SDS011;5374;42.742;23.266;2022-12-11T03:27:33;3.60;;;1.50;;
10651;SDS011;5374;42.742;23.266;2022-12-11T03:30:25;2.93;;;1.20;;
10651;SDS011;5374;42.742;23.266;2022-12-11T03:33:17;2.17;;;1.27;;
10651;SDS011;5374;42.742;23.266;2022-12-11T03:36:10;2.40;;;1.60;;
10651;SDS011;5374;42.742;23.266;2022-12-11T03:39:04;2.90;;;1.00;;
10651;SDS011;5374;42.742;23.266;2022-12-11T03:41:55;3.07;;;1.00;;
10651;SDS011;5374;42.742;23.266;2022-12-11T03:44:45;2.53;;;1.50;;
10651;SDS011;5374;42.742;23.266;2022-12-11T03:47:35;2.20;;;1.17;;
10651;SDS011;5374;42.742;23.266;2022-12-11T03:50:26;4.80;;;2.80;;
10651;SDS011;5374;42.742;23.266;2022-12-11T03:53:16;4.70;;;1.70;;
10651;SDS011;5374;42.742;23.266;2022-12-11T03:56:07;2.37;;;1.20;;
10651;SDS011;5374;42.742;23.266;2022-12-11T03:58:57;3.83;;;1.83;;
10651;SDS011;5374;42.742;23.266;2022-12-11T04:01:44;5.80;;;3.87;;
10651;SDS011;5374;42.742;23.266;2022-12-11T04:04:31;4.47;;;2.10;;
10651;SDS011;5374;42.742;23.266;2022-12-11T04:07:18;4.03;;;1.67;;
10651;SDS011;5374;42.742;23.266;2022-12-11T04:10:06;7.30;;;2.27;;
10651;SDS011;5374;42.742;23.266;2022-12-11T04:12:55;8.10;;;3.03;;
10651;SDS011;5374;42.742;23.266;2022-12-11T04:15:42;5.23;;;2.00;;
10651;SDS011;5374;42.742;23.266;2022-12-11T04:18:28;6.23;;;2.20;;
10651;SDS011;5374;42.742;23.266;2022-12-11T04:21:32;4.73;;;1.80;;
10651;SDS011;5374;42.742;23.266;2022-12-11T04:24:37;5.67;;;1.80;;
10651;SDS011;5374;42.742;23.266;2022-12-11T04:27:24;7.80;;;3.13;;
10651;SDS011;5374;42.742;23.266;2022-12-11T04:30:31;5.37;;;2.30;;
10651;SDS011;5374;42.742;23.266;2022-12-11T04:33:18;4.53;;;1.83;;
10651;SDS011;5374;42.742;23.266;2022-12-11T04:36:05;11.03;;;4.37;;
10651;SDS011;5374;42.742;23.266;2022-12-11T04:38:53;4.97;;;2.60;;
10651;SDS011;5374;42.742;23.266;2022-12-11T04:41:40;4.20;;;2.00;;
10651;SDS011;5374;42.742;23.266;2022-12-11T04:44:28;4.97;;;1.87;;
10651;SDS011;5374;42.742;23.266;2022-12-11T04:47:16;4.70;;;1.80;;
10651;SDS011;5374;42.742;23.266;2022-12-11T04:50:04;4.70;;;2.00;;
10651;SDS011;5374;42.742;23.266;2022-12-11T04:52:53;3.03;;;1.77;;
10651;SDS011;5374;42.742;23.266;2022-12-11T04:55:40;4.90;;;1.80;;
10651;SDS011;5374;42.742;23.266;2022-12-11T04:58:27;6.13;;;1.87;;
10651;SDS011;5374;42.742;23.266;2022-12-11T05:01:15;6.00;;;2.10;;
10651;SDS011;5374;42.742;23.266;2022-12-11T05:04:05;5.70;;;1.73;;
10651;SDS011;5374;42.742;23.266;2022-12-11T05:06:52;4.33;;;1.50;;
10651;SDS011;5374;42.742;23.266;2022-12-11T05:09:39;4.80;;;1.63;;
10651;SDS011;5374;42.742;23.266;2022-12-11T05:12:26;4.87;;;1.70;;
10651;SDS011;5374;42.742;23.266;2022-12-11T05:15:14;6.67;;;1.90;;
10651;SDS011;5374;42.742;23.266;2022-12-11T05:18:01;6.80;;;2.13;;
10651;SDS011;5374;42.742;23.266;2022-12-11T05:20:55;5.13;;;2.00;;
10651;SDS011;5374;42.742;23.266;2022-12-11T05:23:42;5.43;;;2.10;;
10651;SDS011;5374;42.742;23.266;2022-12-11T05:26:30;6.47;;;2.43;;
10651;SDS011;5374;42.742;23.266;2022-12-11T05:29:17;6.33;;;2.17;;
10651;SDS011;5374;42.742;23.266;2022-12-11T05:32:04;6.70;;;2.27;;
10651;SDS011;5374;42.742;23.266;2022-12-11T05:34:51;7.13;;;2.43;;
10651;SDS011;5374;42.742;23.266;2022-12-11T05:37:40;9.17;;;3.40;;
10651;SDS011;5374;42.742;23.266;2022-12-11T05:40:27;9.17;;;2.80;;
10651;SDS011;5374;42.742;23.266;2022-12-11T05:43:14;5.20;;;2.20;;
10651;SDS011;5374;42.742;23.266;2022-12-11T05:46:05;4.57;;;2.23;;
10651;SDS011;5374;42.742;23.266;2022-12-11T05:48:54;4.93;;;2.10;;
10651;SDS011;5374;42.742;23.266;2022-12-11T05:51:43;7.17;;;2.30;;
10651;SDS011;5374;42.742;23.266;2022-12-11T05:54:31;5.57;;;2.10;;
10651;SDS011;5374;42.742;23.266;2022-12-11T05:57:18;9.93;;;2.23;;
10651;SDS011;5374;42.742;23.266;2022-12-11T06:00:06;10.03;;;2.70;;
10651;SDS011;5374;42.742;23.266;2022-12-11T06:02:55;7.47;;;2.70;;
10651;SDS011;5374;42.742;23.266;2022-12-11T06:05:42;9.23;;;3.20;;
10651;SDS011;5374;42.742;23.266;2022-12-11T06:08:29;7.93;;;2.63;;
10651;SDS011;5374;42.742;23.266;2022-12-11T06:11:18;6.47;;;2.93;;
10651;SDS011;5374;42.742;23.266;2022-12-11T06:14:06;5.77;;;2.70;;
10651;SDS011;5374;42.742;23.266;2022-12-11T06:16:53;6.90;;;2.87;;
10651;SDS011;5374;42.742;23.266;2022-12-11T06:19:40;8.27;;;2.50;;
10651;SDS011;5374;42.742;23.266;2022-12-11T06:22:27;6.97;;;2.60;;
10651;SDS011;5374;42.742;23.266;2022-12-11T06:25:14;7.40;;;2.60;;
10651;SDS011;5374;42.742;23.266;2022-12-11T06:28:03;7.53;;;2.20;;
10651;SDS011;5374;42.742;23.266;2022-12-11T06:30:51;10.83;;;2.33;;
10651;SDS011;5374;42.742;23.266;2022-12-11T06:33:38;8.77;;;2.60;;
10651;SDS011;5374;42.742;23.266;2022-12-11T06:36:25;9.20;;;4.07;;
10651;SDS011;5374;42.742;23.266;2022-12-11T06:39:12;15.47;;;8.53;;
10651;SDS011;5374;42.742;23.266;2022-12-11T06:41:59;11.30;;;5.23;;
10651;SDS011;5374;42.742;23.266;2022-12-11T06:44:48;22.13;;;15.37;;
10651;SDS011;5374;42.742;23.266;2022-12-11T06:47:35;8.17;;;3.70;;
10651;SDS011;5374;42.742;23.266;2022-12-11T06:50:22;9.83;;;5.30;;
10651;SDS011;5374;42.742;23.266;2022-12-11T06:53:10;9.47;;;3.40;;
10651;SDS011;5374;42.742;23.266;2022-12-11T06:56:00;10.07;;;2.70;;
10651;SDS011;5374;42.742;23.266;2022-12-11T06:58:49;7.27;;;2.80;;
10651;SDS011;5374;42.742;23.266;2022-12-11T07:01:37;4.57;;;2.00;;
10651;SDS011;5374;42.742;23.266;2022-12-11T07:04:25;6.67;;;2.60;;
10651;SDS011;5374;42.742;23.266;2022-12-11T07:07:12;4.60;;;2.60;;
10651;SDS011;5374;42.742;23.266;2022-12-11T07:09:59;10.97;;;2.20;;
10651;SDS011;5374;42.742;23.266;2022-12-11T07:12:47;7.33;;;2.70;;
10651;SDS011;5374;42.742;23.266;2022-12-11T07:15:34;9.43;;;3.33;;
10651;SDS011;5374;42.742;23.266;2022-12-11T07:18:23;6.43;;;2.60;;
10651;SDS011;5374;42.742;23.266;2022-12-11T07:21:11;6.87;;;2.33;;
10651;SDS011;5374;42.742;23.266;2022-12-11T07:23:58;7.90;;;2.27;;
10651;SDS011;5374;42.742;23.266;2022-12-11T07:26:46;8.73;;;4.20;;
10651;SDS011;5374;42.742;23.266;2022-12-11T07:29:33;10.30;;;4.30;;
10651;SDS011;5374;42.742;23.266;2022-12-11T07:32:20;10.90;;;4.30;;
10651;SDS011;5374;42.742;23.266;2022-12-11T07:35:09;8.07;;;3.10;;
10651;SDS011;5374;42.742;23.266;2022-12-11T07:37:56;15.73;;;8.63;;
10651;SDS011;5374;42.742;23.266;2022-12-11T07:40:44;9.63;;;3.13;;
10651;SDS011;5374;42.742;23.266;2022-12-11T07:43:31;6.90;;;2.37;;
10651;SDS011;5374;42.742;23.266;2022-12-11T07:46:20;7.70;;;2.07;;
10651;SDS011;5374;42.742;23.266;2022-12-11T07:49:09;8.17;;;1.90;;
10651;SDS011;5374;42.742;23.266;2022-12-11T07:51:58;6.67;;;2.10;;
10651;SDS011;5374;42.742;23.266;2022-12-11T07:54:45;6.70;;;3.17;;
10651;SDS011;5374;42.742;23.266;2022-12-11T07:57:32;7.53;;;2.77;;
10651;SDS011;5374;42.742;23.266;2022-12-11T08:00:20;5.67;;;1.97;;
10651;SDS011;5374;42.742;23.266;2022-12-11T08:03:07;6.53;;;1.97;;
10651;SDS011;5374;42.742;23.266;2022-12-11T08:05:54;6.30;;;1.77;;
10651;SDS011;5374;42.742;23.266;2022-12-11T08:08:43;6.93;;;2.10;;
10651;SDS011;5374;42.742;23.266;2022-12-11T08:11:30;10.53;;;5.00;;
10651;SDS011;5374;42.742;23.266;2022-12-11T08:14:17;9.10;;;2.83;;
10651;SDS011;5374;42.742;23.266;2022-12-11T08:17:05;7.10;;;2.30;;
10651;SDS011;5374;42.742;23.266;2022-12-11T08:19:52;5.37;;;1.90;;
10651;SDS011;5374;42.742;23.266;2022-12-11T08:22:39;4.40;;;1.70;;
10651;SDS011;5374;42.742;23.266;2022-12-11T08:25:28;7.37;;;2.03;;
10651;SDS011;5374;42.742;23.266;2022-12-11T08:28:15;5.80;;;2.60;;
10651;SDS011;5374;42.742;23.266;2022-12-11T08:31:03;3.87;;;1.70;;
10651;SDS011;5374;42.742;23.266;2022-12-11T08:33:53;5.93;;;1.57;;
10651;SDS011;5374;42.742;23.266;2022-12-11T08:36:41;5.23;;;2.47;;
10651;SDS011;5374;42.742;23.266;2022-12-11T08:39:28;6.83;;;2.83;;
10651;SDS011;5374;42.742;23.266;2022-12-11T08:42:17;4.33;;;2.17;;
10651;SDS011;5374;42.742;23.266;2022-12-11T08:45:05;4.80;;;2.30;;
10651;SDS011;5374;42.742;23.266;2022-12-11T08:47:53;3.63;;;1.63;;
10651;SDS011;5374;42.742;23.266;2022-12-11T08:50:40;5.80;;;2.33;;
10651;SDS011;5374;42.742;23.266;2022-12-11T08:53:28;4.73;;;1.60;;
10651;SDS011;5374;42.742;23.266;2022-12-11T08:56:16;8.37;;;5.23;;
10651;SDS011;5374;42.742;23.266;2022-12-11T08:59:05;8.70;;;5.40;;
10651;SDS011;5374;42.742;23.266;2022-12-11T09:01:53;15.60;;;10.10;;
10651;SDS011;5374;42.742;23.266;2022-12-11T09:04:40;2.17;;;1.30;;
10651;SDS011;5374;42.742;23.266;2022-12-11T09:07:27;4.47;;;1.80;;
10651;SDS011;5374;42.742;23.266;2022-12-11T09:10:15;3.40;;;1.43;;
10651;SDS011;5374;42.742;23.266;2022-12-11T09:13:02;4.57;;;1.80;;
10651;SDS011;5374;42.742;23.266;2022-12-11T09:15:51;4.40;;;1.83;;
10651;SDS011;5374;42.742;23.266;2022-12-11T09:18:38;3.13;;;1.70;;
10651;SDS011;5374;42.742;23.266;2022-12-11T09:21:26;6.83;;;2.10;;
10651;SDS011;5374;42.742;23.266;2022-12-11T09:24:15;8.20;;;2.70;;
10651;SDS011;5374;42.742;23.266;2022-12-11T09:27:02;4.33;;;2.50;;
10651;SDS011;5374;42.742;23.266;2022-12-11T09:29:49;6.23;;;2.73;;
10651;SDS011;5374;42.742;23.266;2022-12-11T09:32:38;8.60;;;2.73;;
10651;SDS011;5374;42.742;23.266;2022-12-11T09:35:26;4.37;;;2.83;;
10651;SDS011;5374;42.742;23.266;2022-12-11T09:38:13;5.37;;;2.60;;
10651;SDS011;5374;42.742;23.266;2022-12-11T09:41:00;5.73;;;2.37;;
10651;SDS011;5374;42.742;23.266;2022-12-11T09:43:48;6.17;;;2.10;;
10651;SDS011;5374;42.742;23.266;2022-12-11T09:46:45;4.73;;;1.77;;
10651;SDS011;5374;42.742;23.266;2022-12-11T09:49:36;4.73;;;1.93;;
10651;SDS011;5374;42.742;23.266;2022-12-11T09:52:27;4.03;;;1.80;;
10651;SDS011;5374;42.742;23.266;2022-12-11T09:55:20;2.87;;;1.60;;
10651;SDS011;5374;42.742;23.266;2022-12-11T09:58:14;2.87;;;2.10;;
10651;SDS011;5374;42.742;23.266;2022-12-11T10:01:10;3.57;;;1.80;;
10651;SDS011;5374;42.742;23.266;2022-12-11T10:07:29;1.77;;;1.00;;
10651;SDS011;5374;42.742;23.266;2022-12-11T10:10:25;6.37;;;2.37;;
10651;SDS011;5374;42.742;23.266;2022-12-11T10:13:24;6.77;;;3.40;;
10651;SDS011;5374;42.742;23.266;2022-12-11T10:16:30;4.83;;;2.40;;
10651;SDS011;5374;42.742;23.266;2022-12-11T10:19:25;3.33;;;1.33;;
10651;SDS011;5374;42.742;23.266;2022-12-11T10:22:17;2.80;;;1.23;;
10651;SDS011;5374;42.742;23.266;2022-12-11T10:25:12;4.50;;;1.57;;
10651;SDS011;5374;42.742;23.266;2022-12-11T10:28:08;2.33;;;1.10;;
10651;SDS011;5374;42.742;23.266;2022-12-11T10:30:59;6.27;;;2.50;;
10651;SDS011;5374;42.742;23.266;2022-12-11T10:33:53;4.50;;;1.37;;
10651;SDS011;5374;42.742;23.266;2022-12-11T10:36:46;4.23;;;2.47;;
10651;SDS011;5374;42.742;23.266;2022-12-11T10:39:34;11.57;;;4.80;;
10651;SDS011;5374;42.742;23.266;2022-12-11T10:42:22;2.90;;;2.57;;
10651;SDS011;5374;42.742;23.266;2022-12-11T10:45:14;6.90;;;5.30;;
10651;SDS011;5374;42.742;23.266;2022-12-11T10:48:02;3.30;;;1.93;;
10651;SDS011;5374;42.742;23.266;2022-12-11T10:50:55;3.23;;;2.30;;
10651;SDS011;5374;42.742;23.266;2022-12-11T10:53:50;4.43;;;3.20;;
10651;SDS011;5374;42.742;23.266;2022-12-11T10:56:39;4.70;;;2.77;;
10651;SDS011;5374;42.742;23.266;2022-12-11T10:59:29;3.60;;;2.60;;
10651;SDS011;5374;42.742;23.266;2022-12-11T11:02:22;6.30;;;3.53;;
10651;SDS011;5374;42.742;23.266;2022-12-11T11:05:12;2.87;;;1.70;;
10651;SDS011;5374;42.742;23.266;2022-12-11T11:08:12;4.00;;;1.77;;
10651;SDS011;5374;42.742;23.266;2022-12-11T11:11:03;3.43;;;2.20;;
10651;SDS011;5374;42.742;23.266;2022-12-11T11:17:02;4.03;;;1.80;;
10651;SDS011;5374;42.742;23.266;2022-12-11T11:19:49;3.97;;;2.40;;
10651;SDS011;5374;42.742;23.266;2022-12-11T11:22:37;4.10;;;2.30;;
10651;SDS011;5374;42.742;23.266;2022-12-11T11:25:26;4.13;;;2.33;;
10651;SDS011;5374;42.742;23.266;2022-12-11T11:28:16;2.60;;;2.07;;
10651;SDS011;5374;42.742;23.266;2022-12-11T11:31:08;2.80;;;1.83;;
10651;SDS011;5374;42.742;23.266;2022-12-11T11:33:58;3.00;;;1.70;;
10651;SDS011;5374;42.742;23.266;2022-12-11T11:36:54;2.87;;;2.47;;
10651;SDS011;5374;42.742;23.266;2022-12-11T11:39:43;4.17;;;2.57;;
10651;SDS011;5374;42.742;23.266;2022-12-11T11:42:36;4.23;;;2.20;;
10651;SDS011;5374;42.742;23.266;2022-12-11T11:45:30;4.13;;;2.10;;
10651;SDS011;5374;42.742;23.266;2022-12-11T11:48:34;2.90;;;2.00;;
10651;SDS011;5374;42.742;23.266;2022-12-11T11:51:28;2.07;;;1.53;;
10651;SDS011;5374;42.742;23.266;2022-12-11T11:54:23;2.20;;;1.80;;
10651;SDS011;5374;42.742;23.266;2022-12-11T11:57:18;3.33;;;2.33;;
10651;SDS011;5374;42.742;23.266;2022-12-11T12:00:17;3.50;;;2.40;;
10651;SDS011;5374;42.742;23.266;2022-12-11T12:03:08;3.70;;;2.23;;
10651;SDS011;5374;42.742;23.266;2022-12-11T12:06:01;4.23;;;2.13;;
10651;SDS011;5374;42.742;23.266;2022-12-11T12:09:00;3.10;;;2.80;;
10651;SDS011;5374;42.742;23.266;2022-12-11T12:11:59;3.53;;;2.90;;
10651;SDS011;5374;42.742;23.266;2022-12-11T12:15:09;2.93;;;2.40;;
10651;SDS011;5374;42.742;23.266;2022-12-11T12:18:07;3.50;;;2.77;;
10651;SDS011;5374;42.742;23.266;2022-12-11T12:21:04;3.60;;;2.60;;
10651;SDS011;5374;42.742;23.266;2022-12-11T12:24:07;2.40;;;2.20;;
10651;SDS011;5374;42.742;23.266;2022-12-11T12:27:12;2.90;;;2.50;;
10651;SDS011;5374;42.742;23.266;2022-12-11T12:30:05;3.77;;;2.70;;
10651;SDS011;5374;42.742;23.266;2022-12-11T12:33:05;6.43;;;4.80;;
10651;SDS011;5374;42.742;23.266;2022-12-11T12:36:01;2.77;;;2.33;;
10651;SDS011;5374;42.742;23.266;2022-12-11T12:38:59;4.83;;;3.37;;
10651;SDS011;5374;42.742;23.266;2022-12-11T12:41:49;4.00;;;2.47;;
10651;SDS011;5374;42.742;23.266;2022-12-11T12:44:45;4.93;;;3.00;;
10651;SDS011;5374;42.742;23.266;2022-12-11T12:47:41;3.60;;;3.30;;
10651;SDS011;5374;42.742;23.266;2022-12-11T12:50:32;5.67;;;3.77;;
10651;SDS011;5374;42.742;23.266;2022-12-11T12:53:26;5.30;;;3.00;;
10651;SDS011;5374;42.742;23.266;2022-12-11T12:56:17;2.70;;;2.50;;
10651;SDS011;5374;42.742;23.266;2022-12-11T12:59:06;5.23;;;2.90;;
10651;SDS011;5374;42.742;23.266;2022-12-11T13:02:04;4.07;;;3.07;;
10651;SDS011;5374;42.742;23.266;2022-12-11T13:04:59;5.40;;;3.90;;
10651;SDS011;5374;42.742;23.266;2022-12-11T13:07:52;4.87;;;4.37;;
10651;SDS011;5374;42.742;23.266;2022-12-11T13:10:42;3.73;;;3.27;;
10651;SDS011;5374;42.742;23.266;2022-12-11T13:13:32;4.83;;;3.47;;
10651;SDS011;5374;42.742;23.266;2022-12-11T13:16:25;5.47;;;2.73;;
10651;SDS011;5374;42.742;23.266;2022-12-11T13:19:25;4.20;;;3.80;;
10651;SDS011;5374;42.742;23.266;2022-12-11T13:22:19;3.30;;;2.37;;
10651;SDS011;5374;42.742;23.266;2022-12-11T13:25:16;2.73;;;2.00;;
10651;SDS011;5374;42.742;23.266;2022-12-11T13:28:20;5.43;;;3.50;;
10651;SDS011;5374;42.742;23.266;2022-12-11T13:31:27;4.90;;;3.30;;
10651;SDS011;5374;42.742;23.266;2022-12-11T13:34:20;5.77;;;3.67;;
10651;SDS011;5374;42.742;23.266;2022-12-11T13:37:17;5.53;;;2.70;;
10651;SDS011;5374;42.742;23.266;2022-12-11T13:40:13;7.77;;;4.40;;
10651;SDS011;5374;42.742;23.266;2022-12-11T13:43:04;5.87;;;3.00;;
10651;SDS011;5374;42.742;23.266;2022-12-11T13:46:02;6.90;;;4.50;;
10651;SDS011;5374;42.742;23.266;2022-12-11T13:48:51;8.27;;;4.20;;
10651;SDS011;5374;42.742;23.266;2022-12-11T13:51:49;10.57;;;6.40;;
10651;SDS011;5374;42.742;23.266;2022-12-11T13:54:45;10.37;;;5.90;;
10651;SDS011;5374;42.742;23.266;2022-12-11T13:57:33;9.07;;;4.90;;
10651;SDS011;5374;42.742;23.266;2022-12-11T14:00:31;10.50;;;5.07;;
10651;SDS011;5374;42.742;23.266;2022-12-11T14:03:20;10.50;;;4.90;;
10651;SDS011;5374;42.742;23.266;2022-12-11T14:06:08;8.53;;;4.77;;
10651;SDS011;5374;42.742;23.266;2022-12-11T14:08:58;8.27;;;5.20;;
10651;SDS011;5374;42.742;23.266;2022-12-11T14:11:47;14.57;;;6.50;;
10651;SDS011;5374;42.742;23.266;2022-12-11T14:14:38;15.20;;;7.80;;
10651;SDS011;5374;42.742;23.266;2022-12-11T14:17:28;8.47;;;5.10;;
10651;SDS011;5374;42.742;23.266;2022-12-11T14:20:19;8.43;;;4.40;;
10651;SDS011;5374;42.742;23.266;2022-12-11T14:23:14;6.37;;;3.43;;
10651;SDS011;5374;42.742;23.266;2022-12-11T14:26:10;8.67;;;4.50;;
10651;SDS011;5374;42.742;23.266;2022-12-11T14:29:02;9.17;;;6.10;;
10651;SDS011;5374;42.742;23.266;2022-12-11T14:31:50;8.87;;;3.60;;
10651;SDS011;5374;42.742;23.266;2022-12-11T14:34:40;6.20;;;3.40;;
10651;SDS011;5374;42.742;23.266;2022-12-11T14:37:32;8.00;;;3.90;;
10651;SDS011;5374;42.742;23.266;2022-12-11T14:40:21;5.23;;;3.00;;
10651;SDS011;5374;42.742;23.266;2022-12-11T14:43:13;8.80;;;3.83;;
10651;SDS011;5374;42.742;23.266;2022-12-11T14:46:07;6.73;;;4.70;;
10651;SDS011;5374;42.742;23.266;2022-12-11T14:49:02;3.33;;;2.20;;
10651;SDS011;5374;42.742;23.266;2022-12-11T14:51:58;6.00;;;3.67;;
10651;SDS011;5374;42.742;23.266;2022-12-11T14:54:48;4.47;;;2.50;;
10651;SDS011;5374;42.742;23.266;2022-12-11T14:57:39;5.03;;;3.10;;
10651;SDS011;5374;42.742;23.266;2022-12-11T15:00:32;6.90;;;3.70;;
10651;SDS011;5374;42.742;23.266;2022-12-11T15:03:21;6.03;;;3.70;;
10651;SDS011;5374;42.742;23.266;2022-12-11T15:06:20;5.30;;;2.87;;
10651;SDS011;5374;42.742;23.266;2022-12-11T15:09:20;6.50;;;3.30;;
10651;SDS011;5374;42.742;23.266;2022-12-11T15:12:13;8.43;;;4.00;;
10651;SDS011;5374;42.742;23.266;2022-12-11T15:15:03;12.00;;;5.73;;
10651;SDS011;5374;42.742;23.266;2022-12-11T15:18:00;11.87;;;7.23;;
10651;SDS011;5374;42.742;23.266;2022-12-11T15:20:53;9.43;;;4.77;;
10651;SDS011;5374;42.742;23.266;2022-12-11T15:23:46;6.23;;;3.97;;
10651;SDS011;5374;42.742;23.266;2022-12-11T15:26:37;5.40;;;2.90;;
10651;SDS011;5374;42.742;23.266;2022-12-11T15:29:34;4.03;;;3.00;;
10651;SDS011;5374;42.742;23.266;2022-12-11T15:32:23;11.50;;;6.20;;
10651;SDS011;5374;42.742;23.266;2022-12-11T15:35:20;15.47;;;10.33;;
10651;SDS011;5374;42.742;23.266;2022-12-11T15:38:23;9.47;;;6.60;;
10651;SDS011;5374;42.742;23.266;2022-12-11T15:41:13;9.30;;;7.00;;
10651;SDS011;5374;42.742;23.266;2022-12-11T15:44:05;13.17;;;9.53;;
10651;SDS011;5374;42.742;23.266;2022-12-11T15:46:56;22.57;;;10.17;;
10651;SDS011;5374;42.742;23.266;2022-12-11T15:49:43;25.40;;;10.57;;
10651;SDS011;5374;42.742;23.266;2022-12-11T15:52:30;12.80;;;7.07;;
10651;SDS011;5374;42.742;23.266;2022-12-11T15:55:19;9.83;;;4.87;;
10651;SDS011;5374;42.742;23.266;2022-12-11T15:58:10;9.70;;;4.90;;
10651;SDS011;5374;42.742;23.266;2022-12-11T16:01:00;5.40;;;3.40;;
10651;SDS011;5374;42.742;23.266;2022-12-11T16:03:49;3.40;;;2.70;;
10651;SDS011;5374;42.742;23.266;2022-12-11T16:06:36;4.17;;;2.83;;
10651;SDS011;5374;42.742;23.266;2022-12-11T16:09:29;4.73;;;2.83;;
10651;SDS011;5374;42.742;23.266;2022-12-11T16:12:20;5.77;;;3.70;;
10651;SDS011;5374;42.742;23.266;2022-12-11T16:15:09;4.70;;;3.27;;
10651;SDS011;5374;42.742;23.266;2022-12-11T16:18:00;4.60;;;3.33;;
10651;SDS011;5374;42.742;23.266;2022-12-11T16:20:50;11.27;;;5.53;;
10651;SDS011;5374;42.742;23.266;2022-12-11T16:23:38;4.87;;;3.10;;
10651;SDS011;5374;42.742;23.266;2022-12-11T16:26:26;4.00;;;2.87;;
10651;SDS011;5374;42.742;23.266;2022-12-11T16:29:13;6.23;;;4.03;;
10651;SDS011;5374;42.742;23.266;2022-12-11T16:32:00;6.27;;;3.87;;
10651;SDS011;5374;42.742;23.266;2022-12-11T16:34:48;4.27;;;2.93;;
10651;SDS011;5374;42.742;23.266;2022-12-11T16:37:37;7.83;;;4.20;;
10651;SDS011;5374;42.742;23.266;2022-12-11T16:40:24;5.40;;;4.10;;
10651;SDS011;5374;42.742;23.266;2022-12-11T16:43:11;6.13;;;4.70;;
10651;SDS011;5374;42.742;23.266;2022-12-11T16:45:58;4.87;;;3.53;;
10651;SDS011;5374;42.742;23.266;2022-12-11T16:48:46;9.90;;;5.13;;
10651;SDS011;5374;42.742;23.266;2022-12-11T16:51:33;9.50;;;5.27;;
10651;SDS011;5374;42.742;23.266;2022-12-11T16:54:22;6.87;;;4.47;;
10651;SDS011;5374;42.742;23.266;2022-12-11T16:57:09;6.80;;;4.37;;
10651;SDS011;5374;42.742;23.266;2022-12-11T16:59:56;7.40;;;5.00;;
10651;SDS011;5374;42.742;23.266;2022-12-11T17:02:43;7.70;;;4.53;;
10651;SDS011;5374;42.742;23.266;2022-12-11T17:05:31;7.80;;;5.43;;
10651;SDS011;5374;42.742;23.266;2022-12-11T17:08:18;11.03;;;7.50;;
10651;SDS011;5374;42.742;23.266;2022-12-11T17:11:07;14.10;;;9.57;;
10651;SDS011;5374;42.742;23.266;2022-12-11T17:13:56;7.33;;;5.30;;